createdAt,value
2018-09-22T00:00:43.869Z,416.10
2018-09-22T00:03:12.272Z,385.97
2018-09-22T00:05:41.456Z,348.43
2018-09-22T00:08:10.042Z,306.50
2018-09-22T00:10:39.077Z,258.00
2018-09-22T00:13:07.543Z,233.57
2018-09-22T00:15:36.819Z,243.50
2018-09-22T00:18:06.083Z,206.67
2018-09-22T00:20:34.493Z,181.30
2018-09-22T00:23:03.055Z,158.50
2018-09-22T00:25:31.582Z,145.63
2018-09-22T00:27:59.991Z,122.37
2018-09-22T00:30:28.640Z,102.83
2018-09-22T00:32:57.214Z,82.33
2018-09-22T00:35:25.988Z,66.23
2018-09-22T00:37:55.488Z,59.90
2018-09-22T00:40:23.917Z,54.13
2018-09-22T00:42:52.366Z,47.97
2018-09-22T00:45:20.870Z,45.00
2018-09-22T00:47:50.065Z,39.13
2018-09-22T00:50:18.898Z,33.60
2018-09-22T00:52:47.560Z,30.67
2018-09-22T00:55:15.990Z,28.60
2018-09-22T00:57:44.616Z,22.67
2018-09-22T01:00:13.166Z,30.63
2018-09-22T01:02:42.280Z,22.43
2018-09-22T01:05:11.172Z,22.03
2018-09-22T01:07:39.944Z,18.17
2018-09-22T01:10:08.793Z,16.10
2018-09-22T01:12:37.277Z,14.33
2018-09-22T01:15:06.208Z,15.77
2018-09-22T01:17:34.598Z,14.07
2018-09-22T01:20:03.580Z,14.00
2018-09-22T01:22:32.185Z,13.27
2018-09-22T01:25:00.893Z,12.77
2018-09-22T01:27:29.438Z,11.73
2018-09-22T01:29:57.886Z,10.17
2018-09-22T01:32:26.739Z,10.33
2018-09-22T01:34:55.177Z,8.50
2018-09-22T01:37:23.814Z,8.30
2018-09-22T01:39:52.269Z,8.30
2018-09-22T01:42:20.824Z,6.80
2018-09-22T01:44:49.302Z,6.90
2018-09-22T01:47:17.774Z,7.53
2018-09-22T01:49:46.607Z,9.90
2018-09-22T01:52:15.090Z,6.97
2018-09-22T01:54:43.726Z,6.57
2018-09-22T01:57:12.428Z,7.83
2018-09-22T01:59:41.345Z,5.67
2018-09-22T02:02:09.905Z,6.93
2018-09-22T02:04:38.994Z,7.77
2018-09-22T02:07:07.390Z,6.90
2018-09-22T02:09:36.281Z,6.13
2018-09-22T02:12:05.060Z,5.43
2018-09-22T02:14:33.556Z,8.70
2018-09-22T02:17:02.042Z,5.10
2018-09-22T02:19:30.452Z,6.33
2018-09-22T02:21:58.897Z,7.67
2018-09-22T02:24:27.331Z,6.03
2018-09-22T02:26:56.261Z,6.90
2018-09-22T02:29:25.035Z,4.47
2018-09-22T02:31:53.415Z,8.20
2018-09-22T02:34:21.812Z,6.43
2018-09-22T02:36:50.921Z,5.37
2018-09-22T02:39:19.626Z,6.40
2018-09-22T02:41:48.061Z,6.60
2018-09-22T02:44:17.261Z,5.07
2018-09-22T02:46:45.650Z,7.60
2018-09-22T02:49:14.072Z,9.33
2018-09-22T02:51:42.969Z,5.93
2018-09-22T02:54:11.592Z,7.57
2018-09-22T02:56:40.166Z,5.00
2018-09-22T02:59:08.816Z,6.70
2018-09-22T03:01:37.388Z,6.37
2018-09-22T03:04:05.816Z,5.83
2018-09-22T03:06:34.382Z,6.20
2018-09-22T03:09:03.136Z,6.67
2018-09-22T03:11:32.665Z,4.97
2018-09-22T03:14:01.209Z,7.23
2018-09-22T03:16:29.760Z,6.10
2018-09-22T03:18:58.368Z,5.63
2018-09-22T03:21:27.649Z,5.53
2018-09-22T03:23:56.141Z,5.20
2018-09-22T03:26:24.764Z,5.20
2018-09-22T03:28:53.629Z,5.67
2018-09-22T03:31:22.162Z,5.17
2018-09-22T03:33:50.696Z,6.03
2018-09-22T03:36:19.606Z,4.77
2018-09-22T03:38:48.162Z,5.90
2018-09-22T03:41:17.470Z,4.53
2018-09-22T03:43:46.129Z,4.63
2018-09-22T03:46:14.948Z,5.50
2018-09-22T03:48:43.751Z,5.53
2018-09-22T03:51:12.211Z,3.93
2018-09-22T03:53:40.678Z,5.00
2018-09-22T03:56:09.094Z,5.80
2018-09-22T03:58:37.658Z,5.13
2018-09-22T04:01:06.302Z,6.47
2018-09-22T04:03:34.722Z,4.67
2018-09-22T04:06:03.196Z,4.63
2018-09-22T04:08:31.848Z,3.47
2018-09-22T04:11:00.393Z,3.53
2018-09-22T04:13:28.809Z,5.80
2018-09-22T04:15:57.197Z,4.50
2018-09-22T04:18:25.711Z,5.23
2018-09-22T04:20:54.240Z,4.33
2018-09-22T04:23:22.779Z,4.27
2018-09-22T04:25:51.251Z,6.93
2018-09-22T04:28:19.667Z,4.13
2018-09-22T04:30:48.084Z,4.47
2018-09-22T04:33:16.760Z,3.87
2018-09-22T04:35:45.282Z,4.57
2018-09-22T04:38:13.930Z,5.40
2018-09-22T04:40:43.386Z,4.53
2018-09-22T04:43:12.546Z,3.97
2018-09-22T04:45:41.091Z,5.67
2018-09-22T04:48:09.534Z,5.63
2018-09-22T04:50:37.976Z,4.03
2018-09-22T04:53:06.393Z,5.33
2018-09-22T04:55:34.854Z,4.50
2018-09-22T04:58:03.786Z,4.67
2018-09-22T05:00:32.261Z,4.57
2018-09-22T05:03:00.654Z,4.83
2018-09-22T05:05:29.047Z,5.63
2018-09-22T05:07:58.366Z,6.77
2018-09-22T05:10:27.392Z,5.17
2018-09-22T05:12:56.294Z,4.90
2018-09-22T05:15:24.808Z,5.40
2018-09-22T05:17:53.204Z,3.47
2018-09-22T05:20:21.609Z,4.00
2018-09-22T05:22:51.107Z,4.03
2018-09-22T05:25:19.714Z,5.27
2018-09-22T05:27:48.445Z,4.07
2018-09-22T05:30:17.013Z,4.73
2018-09-22T05:32:45.383Z,3.03
2018-09-22T05:35:13.982Z,2.80
2018-09-22T05:37:42.548Z,4.17
2018-09-22T05:40:10.991Z,5.73
2018-09-22T05:42:39.481Z,3.37
2018-09-22T05:45:08.228Z,3.60
2018-09-22T05:47:36.773Z,4.97
2018-09-22T05:50:06.508Z,3.03
2018-09-22T05:52:34.966Z,8.27
2018-09-22T05:55:03.661Z,3.27
2018-09-22T05:57:32.289Z,6.10
2018-09-22T06:00:00.718Z,4.50
2018-09-22T06:02:29.170Z,4.13
2018-09-22T06:04:57.799Z,5.27
2018-09-22T06:07:26.365Z,4.83
2018-09-22T06:09:55.436Z,5.43
2018-09-22T06:12:24.565Z,6.73
2018-09-22T06:14:53.089Z,3.53
2018-09-22T06:17:21.553Z,4.40
2018-09-22T06:19:49.991Z,5.13
2018-09-22T06:22:18.567Z,4.33
2018-09-22T06:24:47.093Z,5.50
2018-09-22T06:27:15.567Z,3.77
2018-09-22T06:29:44.002Z,4.53
2018-09-22T06:32:12.550Z,5.50
2018-09-22T06:34:41.137Z,5.07
2018-09-22T06:37:09.858Z,4.20
2018-09-22T06:39:38.881Z,4.67
2018-09-22T06:42:07.827Z,8.30
2018-09-22T06:44:36.740Z,5.20
2018-09-22T06:47:05.261Z,4.60
2018-09-22T06:49:33.676Z,5.97
2018-09-22T06:52:02.414Z,5.30
2018-09-22T06:54:31.038Z,4.97
2018-09-22T06:56:59.584Z,5.23
2018-09-22T06:59:28.016Z,4.27
2018-09-22T07:01:57.067Z,3.87
2018-09-22T07:04:26.009Z,3.73
2018-09-22T07:06:55.255Z,5.07
2018-09-22T07:09:24.620Z,4.70
2018-09-22T07:11:53.092Z,3.20
2018-09-22T07:14:21.530Z,3.30
2018-09-22T07:16:51.143Z,3.27
2018-09-22T07:19:20.544Z,4.97
2018-09-22T07:21:55.397Z,5.97
2018-09-22T07:24:23.933Z,4.57
2018-09-22T07:26:52.537Z,4.90
2018-09-22T07:29:21.103Z,5.07
2018-09-22T07:31:49.521Z,5.97
2018-09-22T07:34:17.993Z,4.53
2018-09-22T07:36:46.379Z,3.13
2018-09-22T07:39:14.939Z,3.80
2018-09-22T07:41:43.525Z,4.77
2018-09-22T07:44:12.005Z,3.77
2018-09-22T07:46:40.404Z,6.43
2018-09-22T07:49:08.997Z,5.47
2018-09-22T07:51:37.546Z,4.93
2018-09-22T07:54:08.320Z,3.80
2018-09-22T07:56:37.150Z,5.10
2018-09-22T07:59:06.017Z,5.80
2018-09-22T08:01:35.298Z,5.97
2018-09-22T08:04:04.148Z,5.57
2018-09-22T08:06:33.205Z,3.00
2018-09-22T08:09:01.672Z,5.30
2018-09-22T08:11:30.307Z,5.23
2018-09-22T08:13:58.880Z,7.20
2018-09-22T08:16:27.692Z,6.10
2018-09-22T08:18:56.943Z,4.33
2018-09-22T08:21:25.564Z,6.57
2018-09-22T08:23:54.143Z,5.07
2018-09-22T08:26:22.743Z,6.23
2018-09-22T08:28:51.163Z,5.50
2018-09-22T08:31:20.007Z,4.03
2018-09-22T08:33:48.487Z,5.17
2018-09-22T08:36:17.110Z,5.33
2018-09-22T08:38:45.568Z,4.53
2018-09-22T08:41:14.233Z,5.73
2018-09-22T08:43:42.759Z,4.63
2018-09-22T08:46:11.652Z,6.13
2018-09-22T08:48:40.232Z,4.57
2018-09-22T08:51:09.329Z,6.80
2018-09-22T08:53:38.068Z,5.83
2018-09-22T08:56:07.176Z,5.20
2018-09-22T08:58:35.639Z,4.87
2018-09-22T09:01:04.065Z,6.43
2018-09-22T09:03:32.616Z,5.40
2018-09-22T09:06:01.110Z,6.83
2018-09-22T09:08:29.836Z,9.83
2018-09-22T09:10:58.286Z,8.50
2018-09-22T09:13:27.737Z,4.67
2018-09-22T09:15:56.242Z,4.23
2018-09-22T09:18:24.795Z,7.30
2018-09-22T09:20:55.180Z,5.73
2018-09-22T09:23:23.746Z,7.03
2018-09-22T09:25:52.738Z,6.53
2018-09-22T09:28:21.280Z,5.13
2018-09-22T09:30:51.473Z,5.47
2018-09-22T09:33:20.681Z,4.37
2018-09-22T09:35:50.124Z,5.70
2018-09-22T09:38:18.814Z,5.90
2018-09-22T09:40:47.436Z,5.07
2018-09-22T09:43:16.046Z,4.00
2018-09-22T09:45:44.823Z,6.70
2018-09-22T09:48:14.756Z,6.17
2018-09-22T09:50:43.223Z,6.67
2018-09-22T09:53:11.781Z,4.60
2018-09-22T09:55:40.398Z,6.10
2018-09-22T09:58:09.678Z,5.33
2018-09-22T10:00:45.248Z,9.80
2018-09-22T10:03:16.186Z,8.77
2018-09-22T10:05:45.502Z,8.80
2018-09-22T10:08:14.224Z,8.27
2018-09-22T10:10:43.379Z,6.97
2018-09-22T10:13:11.821Z,13.13
2018-09-22T10:15:40.997Z,8.90
2018-09-22T10:18:09.699Z,13.30
2018-09-22T10:20:39.346Z,11.77
2018-09-22T10:23:08.300Z,6.67
2018-09-22T10:25:36.941Z,8.57
2018-09-22T10:28:05.604Z,6.87
2018-09-22T10:30:34.035Z,7.87
2018-09-22T10:33:03.086Z,8.27
2018-09-22T10:35:31.627Z,8.63
2018-09-22T10:38:00.132Z,10.77
2018-09-22T10:40:28.502Z,8.83
2018-09-22T10:42:57.047Z,8.57
2018-09-22T10:45:25.496Z,7.00
2018-09-22T10:47:55.728Z,7.43
2018-09-22T10:50:24.847Z,6.37
2018-09-22T10:52:53.420Z,7.77
2018-09-22T10:55:22.165Z,8.00
2018-09-22T10:57:50.636Z,9.90
2018-09-22T11:00:19.124Z,7.17
2018-09-22T11:02:47.843Z,5.83
2018-09-22T11:05:16.629Z,8.87
2018-09-22T11:07:45.359Z,6.90
2018-09-22T11:10:14.685Z,6.90
2018-09-22T11:12:43.163Z,6.03
2018-09-22T11:15:11.788Z,6.50
2018-09-22T11:17:45.111Z,6.43
2018-09-22T11:20:15.870Z,5.33
2018-09-22T11:22:45.469Z,8.37
2018-09-22T11:25:14.792Z,8.90
2018-09-22T11:27:43.207Z,7.40
2018-09-22T11:30:12.165Z,7.90
2018-09-22T11:32:40.616Z,10.27
2018-09-22T11:35:08.992Z,7.23
2018-09-22T11:37:38.355Z,6.67
2018-09-22T11:40:06.818Z,9.07
2018-09-22T11:42:43.648Z,10.87
2018-09-22T11:45:12.016Z,6.23
2018-09-22T11:47:43.376Z,8.67
2018-09-22T11:50:11.843Z,6.03
2018-09-22T11:52:42.242Z,8.93
2018-09-22T11:55:10.635Z,5.83
2018-09-22T11:57:39.672Z,5.83
2018-09-22T12:00:08.051Z,7.53
2018-09-22T12:02:36.539Z,6.53
2018-09-22T12:05:05.354Z,5.67
2018-09-22T12:07:36.982Z,4.37
2018-09-22T12:10:05.764Z,5.63
2018-09-22T12:12:34.436Z,6.23
2018-09-22T12:15:02.828Z,8.20
2018-09-22T12:17:32.352Z,5.00
2018-09-22T12:20:00.873Z,7.97
2018-09-22T12:22:29.381Z,5.40
2018-09-22T12:24:57.987Z,7.77
2018-09-22T12:27:27.345Z,7.73
2018-09-22T12:29:55.821Z,9.13
2018-09-22T12:32:24.374Z,17.80
2018-09-22T12:34:53.853Z,11.10
2018-09-22T12:37:22.591Z,9.83
2018-09-22T12:39:51.849Z,6.90
2018-09-22T12:42:20.775Z,9.27
2018-09-22T12:44:49.321Z,6.40
2018-09-22T12:47:17.884Z,7.40
2018-09-22T12:49:46.329Z,8.27
2018-09-22T12:54:49.696Z,9.63
2018-09-22T12:59:58.050Z,19.40
2018-09-22T13:02:27.536Z,17.03
2018-09-22T13:04:55.996Z,17.67
2018-09-22T13:07:24.421Z,15.77
2018-09-22T13:09:52.889Z,17.80
2018-09-22T13:12:21.388Z,15.00
2018-09-22T13:14:49.917Z,16.50
2018-09-22T13:17:18.476Z,15.70
2018-09-22T13:19:47.116Z,13.40
2018-09-22T13:22:15.798Z,10.57
2018-09-22T13:24:44.406Z,10.03
2018-09-22T13:27:12.804Z,8.40
2018-09-22T13:29:41.321Z,9.90
2018-09-22T13:32:09.740Z,10.40
2018-09-22T13:34:38.128Z,11.63
2018-09-22T13:37:07.454Z,12.63
2018-09-22T13:39:35.894Z,8.40
2018-09-22T13:42:04.503Z,8.63
2018-09-22T13:44:33.169Z,8.60
2018-09-22T13:47:01.599Z,7.80
2018-09-22T13:49:30.238Z,6.90
2018-09-22T13:51:59.322Z,8.30
2018-09-22T13:54:27.772Z,7.23
2018-09-22T13:56:56.285Z,6.77
2018-09-22T13:59:24.701Z,6.07
2018-09-22T14:01:53.099Z,9.30
2018-09-22T14:04:21.473Z,7.73
2018-09-22T14:06:49.849Z,6.37
2018-09-22T14:09:18.471Z,5.77
2018-09-22T14:11:47.088Z,7.47
2018-09-22T14:14:15.488Z,8.37
2018-09-22T14:16:44.328Z,5.87
2018-09-22T14:19:12.920Z,5.90
2018-09-22T14:21:41.340Z,6.80
2018-09-22T14:24:10.228Z,7.60
2018-09-22T14:26:39.393Z,6.57
2018-09-22T14:29:08.012Z,8.50
2018-09-22T14:31:36.476Z,7.57
2018-09-22T14:34:04.899Z,5.33
2018-09-22T14:36:33.389Z,4.77
2018-09-22T14:39:02.013Z,7.53
2018-09-22T14:41:30.519Z,5.43
2018-09-22T14:43:58.889Z,8.80
2018-09-22T14:46:27.367Z,6.47
2018-09-22T14:48:56.745Z,6.10
2018-09-22T14:51:26.778Z,8.73
2018-09-22T14:53:55.588Z,8.83
2018-09-22T14:56:24.379Z,9.63
2018-09-22T14:58:53.391Z,5.27
2018-09-22T15:01:21.784Z,7.20
2018-09-22T15:03:50.704Z,7.47
2018-09-22T15:06:19.512Z,5.63
2018-09-22T15:08:48.173Z,6.83
2018-09-22T15:11:16.669Z,6.57
2018-09-22T15:13:45.187Z,35.70
2018-09-22T15:16:14.139Z,11.27
2018-09-22T15:18:43.325Z,14.17
2018-09-22T15:21:11.788Z,17.10
2018-09-22T15:23:40.787Z,13.60
2018-09-22T15:26:10.302Z,16.33
2018-09-22T15:28:39.808Z,8.07
2018-09-22T15:31:08.644Z,11.37
2018-09-22T15:33:37.232Z,14.50
2018-09-22T15:36:06.959Z,11.93
2018-09-22T15:38:36.008Z,12.97
2018-09-22T15:41:04.904Z,11.10
2018-09-22T15:43:33.756Z,15.47
2018-09-22T15:46:02.180Z,19.90
2018-09-22T15:48:32.009Z,26.67
2018-09-22T15:51:00.526Z,29.53
2018-09-22T15:53:28.964Z,26.30
2018-09-22T15:55:57.645Z,37.28
2018-09-22T15:58:26.868Z,25.13
2018-09-22T16:00:55.829Z,18.33
2018-09-22T16:03:24.362Z,16.07
2018-09-22T16:05:53.195Z,19.37
2018-09-22T16:08:21.755Z,17.87
2018-09-22T16:10:50.717Z,10.60
2018-09-22T16:13:19.790Z,16.17
2018-09-22T16:15:48.483Z,14.90
2018-09-22T16:18:17.395Z,11.00
2018-09-22T16:20:47.097Z,10.73
2018-09-22T16:23:15.844Z,12.70
2018-09-22T16:25:44.532Z,13.50
2018-09-22T16:28:14.041Z,11.07
2018-09-22T16:30:44.088Z,11.00
2018-09-22T16:33:13.140Z,9.83
2018-09-22T16:35:42.253Z,13.50
2018-09-22T16:38:11.588Z,9.73
2018-09-22T16:40:40.032Z,10.53
2018-09-22T16:43:08.476Z,9.80
2018-09-22T16:45:37.169Z,9.67
2018-09-22T16:48:06.023Z,10.07
2018-09-22T16:50:34.568Z,11.27
2018-09-22T16:53:03.492Z,9.40
2018-09-22T16:55:32.045Z,10.43
2018-09-22T16:58:01.412Z,8.90
2018-09-22T17:00:30.645Z,8.17
2018-09-22T17:02:59.172Z,8.20
2018-09-22T17:05:27.681Z,8.87
2018-09-22T17:11:05.445Z,8.50
2018-09-22T17:13:45.468Z,12.50
2018-09-22T17:16:23.731Z,8.50
2018-09-22T17:18:53.415Z,17.00
2018-09-22T17:21:27.351Z,18.00
2018-09-22T17:23:56.947Z,14.23
2018-09-22T17:26:31.313Z,11.33
2018-09-22T17:28:59.822Z,9.33
2018-09-22T17:31:28.601Z,27.50
2018-09-22T17:34:08.701Z,24.37
2018-09-22T17:36:42.966Z,27.40
2018-09-22T17:39:30.330Z,48.13
2018-09-22T17:42:09.024Z,39.87
2018-09-22T17:44:38.077Z,34.13
2018-09-22T17:47:17.146Z,38.03
2018-09-22T17:49:48.812Z,31.10
2018-09-22T17:52:17.808Z,19.93
2018-09-22T17:54:47.083Z,24.73
2018-09-22T18:00:34.197Z,23.15
2018-09-22T18:06:12.171Z,17.80
2018-09-22T18:08:41.777Z,17.33
2018-09-22T18:11:11.239Z,12.70
2018-09-22T18:13:40.002Z,11.60
2018-09-22T18:16:09.453Z,11.33
2018-09-22T18:18:54.326Z,11.70
2018-09-22T18:21:23.107Z,10.37
2018-09-22T18:23:51.760Z,11.30
2018-09-22T18:29:41.682Z,11.87
2018-09-22T18:32:10.415Z,12.70
2018-09-22T18:34:39.098Z,14.80
2018-09-22T18:37:07.647Z,7.70
2018-09-22T18:39:36.273Z,7.93
2018-09-22T18:42:07.793Z,7.47
2018-09-22T18:44:36.310Z,7.13
2018-09-22T18:47:06.020Z,6.67
2018-09-22T18:49:34.466Z,8.70
2018-09-22T18:52:04.433Z,9.20
2018-09-22T18:54:32.908Z,7.57
2018-09-22T18:57:01.315Z,7.13
2018-09-22T18:59:30.012Z,7.40
2018-09-22T19:01:58.368Z,8.43
2018-09-22T19:07:47.248Z,8.20
2018-09-22T19:10:15.880Z,7.00
2018-09-22T19:12:44.390Z,9.50
2018-09-22T19:15:17.830Z,9.73
2018-09-22T19:19:01.578Z,6.40
2018-09-22T19:21:38.456Z,8.30
2018-09-22T19:24:16.345Z,8.47
2018-09-22T19:26:49.843Z,7.47
2018-09-22T19:29:23.974Z,9.20
2018-09-22T19:31:59.859Z,9.93
2018-09-22T19:34:32.685Z,8.57
2018-09-22T19:37:05.784Z,9.30
2018-09-22T19:39:38.504Z,8.90
2018-09-22T19:42:12.212Z,11.43
2018-09-22T19:44:46.267Z,7.73
2018-09-22T19:50:41.283Z,9.27
2018-09-22T19:53:45.384Z,9.70
2018-09-22T19:56:13.829Z,9.77
2018-09-22T19:58:42.534Z,10.87
2018-09-22T20:01:11.214Z,10.47
2018-09-22T20:03:39.797Z,10.37
2018-09-22T20:06:08.664Z,9.80
2018-09-22T20:12:08.644Z,10.77
2018-09-22T20:14:37.270Z,11.43
2018-09-22T20:17:06.034Z,10.10
2018-09-22T20:19:34.549Z,9.63
2018-09-22T20:22:03.004Z,9.87
2018-09-22T20:24:31.608Z,9.83
2018-09-22T20:27:00.246Z,10.17
2018-09-22T20:29:28.820Z,9.97
2018-09-22T20:31:57.568Z,10.77
2018-09-22T20:34:26.065Z,11.37
2018-09-22T20:36:54.668Z,9.40
2018-09-22T20:39:23.320Z,11.63
2018-09-22T20:48:32.941Z,10.07
2018-09-22T20:51:01.454Z,10.83
2018-09-22T20:53:30.151Z,11.23
2018-09-22T20:55:58.833Z,10.57
2018-09-22T20:58:27.508Z,13.37
2018-09-22T21:00:55.983Z,11.03
2018-09-22T21:03:24.604Z,10.97
2018-09-22T21:05:53.170Z,10.17
2018-09-22T21:08:21.717Z,9.67
2018-09-22T21:10:55.876Z,11.80
2018-09-22T21:13:24.489Z,11.13
2018-09-22T21:16:07.856Z,10.97
2018-09-22T21:18:36.445Z,12.17
2018-09-22T21:21:05.303Z,11.03
2018-09-22T21:23:34.095Z,11.77
2018-09-22T21:26:03.541Z,11.17
2018-09-22T21:28:32.023Z,9.13
2018-09-22T21:31:00.480Z,9.43
2018-09-22T21:33:29.032Z,11.57
2018-09-22T21:35:57.724Z,11.10
2018-09-22T21:38:26.352Z,10.13
2018-09-22T21:40:56.540Z,10.43
2018-09-22T21:47:03.319Z,13.17
2018-09-22T21:49:31.785Z,11.60
2018-09-22T21:52:01.135Z,10.30
2018-09-22T21:54:58.412Z,11.90
2018-09-22T22:01:02.176Z,12.70
2018-09-22T22:09:41.130Z,14.43
2018-09-22T22:12:09.536Z,10.97
2018-09-22T22:14:46.794Z,12.53
2018-09-22T22:18:05.185Z,13.57
2018-09-22T22:20:55.295Z,13.23
2018-09-22T22:26:54.621Z,12.27
2018-09-22T22:30:06.544Z,12.93
2018-09-22T22:36:05.970Z,10.90
2018-09-22T22:38:34.653Z,11.90
2018-09-22T22:41:03.951Z,15.60
2018-09-22T22:43:33.847Z,13.57
2018-09-22T22:46:46.337Z,12.07
2018-09-22T22:49:15.072Z,10.60
2018-09-22T22:51:43.759Z,11.27
2018-09-22T22:57:43.512Z,11.67
2018-09-22T23:00:12.056Z,10.67
2018-09-22T23:09:10.843Z,10.27
2018-09-22T23:15:07.640Z,10.60
2018-09-22T23:18:03.582Z,10.60
2018-09-22T23:26:54.643Z,9.80
2018-09-22T23:36:21.878Z,10.57
2018-09-22T23:42:25.125Z,9.47
2018-09-22T23:44:53.596Z,11.70
2018-09-22T23:47:22.100Z,10.13
2018-09-22T23:49:50.843Z,10.30
2018-09-22T23:52:26.993Z,9.70
2018-09-22T23:54:56.134Z,10.57
2018-09-22T23:57:24.611Z,9.80
2018-09-22T23:59:53.085Z,8.77
